Time;durP1;ratioP1;P1;durP2;ratioP2;P2;SDS_P1;SDS_P2;PMS_P1;PMS_P2;Temp;Humidity;BMP_temperature;BMP_pressure;BME280_temperature;BME280_humidity;BME280_pressure;Samples;Min_cycle;Max_cycle;Signal;HPM_P1;HPM_P2
2022/04/09 00:03:10;;;;;;;5.13;0.90;;;;;;;7.98;36.41;99093.75;10323834;28;20225;-82
2022/04/09 00:08:12;;;;;;;3.93;0.87;;;;;;;8.29;35.09;99099.38;10307182;28;20304;-83
2022/04/09 00:13:15;;;;;;;3.97;0.93;;;;;;;8.64;35.26;99116.38;10311892;28;20249;-82
2022/04/09 00:18:17;;;;;;;6.70;1.43;;;;;;;8.50;34.87;99121.66;10307680;28;20303;-83
2022/04/09 00:23:19;;;;;;;5.30;0.80;;;;;;;7.62;35.87;99125.69;10323026;28;20709;-82
2022/04/09 00:28:21;;;;;;;2.63;0.90;;;;;;;8.18;35.78;99139.69;10314422;28;20292;-83
2022/04/09 00:33:24;;;;;;;8.67;0.93;;;;;;;7.39;37.13;99152.69;10323568;28;20257;-83
2022/04/09 00:38:29;;;;;;;7.73;0.83;;;;;;;8.09;36.36;99165.22;10325014;28;20249;-81
2022/04/09 00:43:31;;;;;;;6.33;1.30;;;;;;;8.39;35.63;99164.81;10343602;28;20653;-81
2022/04/09 00:48:37;;;;;;;6.13;1.40;;;;;;;8.48;35.45;99174.72;10330843;28;20280;-81
2022/04/09 00:53:39;;;;;;;4.07;1.00;;;;;;;8.78;35.42;99180.75;10342525;28;20252;-83
2022/04/09 00:58:55;;;;;;;7.40;1.30;;;;;;;8.23;35.83;99190.94;10343423;28;20242;-83
2022/04/09 01:03:58;;;;;;;7.80;1.87;;;;;;;8.44;36.29;99204.78;10343617;28;20245;-83
2022/04/09 01:09:02;;;;;;;7.60;1.87;;;;;;;7.73;37.71;99216.00;10342992;28;20290;-83
2022/04/09 01:14:04;;;;;;;9.13;1.80;;;;;;;7.58;38.11;99226.81;10331180;28;20967;-83
2022/04/09 01:19:07;;;;;;;8.17;1.83;;;;;;;8.33;36.69;99234.66;10314881;28;20252;-80
2022/04/09 01:24:12;;;;;;;6.93;1.67;;;;;;;8.31;36.13;99239.81;10353306;28;20233;-81
2022/04/09 01:29:22;;;;;;;9.40;2.13;;;;;;;7.66;37.71;99253.16;10327083;28;20237;-83
2022/04/09 01:34:26;;;;;;;8.60;1.90;;;;;;;7.85;37.49;99261.84;10349850;28;20257;-84
2022/04/09 01:39:28;;;;;;;9.83;1.97;;;;;;;7.29;38.59;99266.47;10346822;28;20276;-84
2022/04/09 01:44:30;;;;;;;7.37;1.57;;;;;;;7.73;37.79;99278.75;10320005;28;20273;-82
2022/04/09 01:49:33;;;;;;;6.90;1.50;;;;;;;8.13;36.41;99292.00;10356105;28;20230;-84
2022/04/09 01:54:35;;;;;;;9.50;3.03;;;;;;;7.56;37.98;99304.28;10350930;28;20280;-83
2022/04/09 01:59:43;;;;;;;11.90;2.47;;;;;;;6.79;38.04;99315.38;10346356;28;20292;-81
2022/04/09 02:04:47;;;;;;;9.60;2.23;;;;;;;7.47;38.15;99320.47;10346399;28;20238;-84
2022/04/09 02:09:50;;;;;;;8.30;2.07;;;;;;;7.99;36.99;99326.16;10363861;28;20210;-81
2022/04/09 02:14:52;;;;;;;9.23;2.17;;;;;;;7.68;37.76;99338.03;10357748;28;20276;-83
2022/04/09 02:19:54;;;;;;;10.00;2.33;;;;;;;7.17;38.39;99342.34;10357589;28;20638;-81
2022/04/09 02:24:57;;;;;;;8.13;2.27;;;;;;;6.21;39.57;99352.06;10342092;28;20233;-83
2022/04/09 02:29:59;;;;;;;10.20;2.40;;;;;;;7.17;38.50;99342.34;10331197;28;20637;-81
2022/04/09 02:35:03;;;;;;;11.27;2.30;;;;;;;6.90;38.58;99357.88;10323113;28;20263;-80
2022/04/09 02:40:08;;;;;;;12.13;3.13;;;;;;;7.44;37.85;99360.53;10336328;28;20237;-80
2022/04/09 02:45:11;;;;;;;14.13;2.37;;;;;;;7.22;38.18;99387.13;10347334;28;20249;-81
2022/04/09 02:50:14;;;;;;;7.77;2.27;;;;;;;6.73;39.08;99397.38;10349743;28;20246;-83
2022/04/09 02:55:20;;;;;;;10.47;2.37;;;;;;;7.77;37.36;99409.06;10347852;28;20630;-81
2022/04/09 03:00:23;;;;;;;9.53;2.10;;;;;;;7.89;37.16;99417.50;10333138;28;20259;-83
2022/04/09 03:05:30;;;;;;;10.53;1.83;;;;;;;7.08;38.01;99414.72;10340187;28;20551;-83
2022/04/09 03:10:33;;;;;;;10.50;2.27;;;;;;;6.98;38.60;99424.41;10326075;28;20296;-81
2022/04/09 03:15:35;;;;;;;9.73;2.13;;;;;;;6.91;39.49;99441.00;10319439;28;20548;-83
2022/04/09 03:20:38;;;;;;;11.83;1.90;;;;;;;5.82;40.18;99453.19;10335348;28;20269;-83
2022/04/09 03:25:41;;;;;;;8.43;1.90;;;;;;;7.95;36.32;99449.88;10318207;28;20284;-82
2022/04/09 03:30:44;;;;;;;9.57;2.90;;;;;;;6.11;40.00;99466.38;10319705;28;20308;-83
2022/04/09 03:35:50;;;;;;;9.77;2.00;;;;;;;6.78;38.61;99468.22;10360523;28;20201;-84
2022/04/09 03:40:56;;;;;;;7.63;1.80;;;;;;;7.22;38.20;99477.91;10359741;28;20265;-84
2022/04/09 03:46:24;;;;;;;9.90;3.17;;;;;;;5.97;40.10;99490.25;10345699;28;20276;-84
2022/04/09 03:51:28;;;;;;;11.33;2.60;;;;;;;7.68;37.63;99487.13;10363837;28;20310;-84
2022/04/09 03:56:32;;;;;;;9.50;2.43;;;;;;;7.79;37.04;99485.53;10361989;28;20284;-83
2022/04/09 04:01:36;;;;;;;6.90;1.90;;;;;;;6.24;39.53;99512.19;10358772;28;20619;-84
2022/04/09 04:06:44;;;;;;;6.80;2.70;;;;;;;6.62;38.58;99514.09;10345726;28;20249;-84
2022/04/09 04:11:46;;;;;;;10.00;2.33;;;;;;;7.20;37.75;99513.13;10357968;28;20264;-84
2022/04/09 04:16:49;;;;;;;7.43;1.70;;;;;;;5.76;40.35;99532.25;10357887;28;20582;-81
2022/04/09 04:21:52;;;;;;;9.57;2.43;;;;;;;5.58;40.83;99534.25;10358366;28;20244;-84
2022/04/09 04:26:56;;;;;;;10.70;2.00;;;;;;;7.19;37.81;99537.63;10326360;28;20582;-81
2022/04/09 04:32:00;;;;;;;10.70;2.13;;;;;;;7.00;38.17;99553.31;10338015;28;20323;-83
2022/04/09 04:37:03;;;;;;;6.67;1.90;;;;;;;7.00;39.20;99565.38;10360285;28;20237;-83
2022/04/09 04:42:07;;;;;;;10.70;2.43;;;;;;;7.27;37.91;99569.63;10358525;28;20244;-84
2022/04/09 04:47:10;;;;;;;7.67;1.83;;;;;;;4.69;43.63;99588.22;10364103;28;20237;-83
2022/04/09 04:52:12;;;;;;;8.53;1.87;;;;;;;6.19;40.52;99591.00;10376074;28;20319;-83
2022/04/09 04:57:15;;;;;;;8.00;2.17;;;;;;;7.55;37.06;99609.22;10377971;28;20237;-82
2022/04/09 05:02:18;;;;;;;11.23;1.73;;;;;;;6.96;38.13;99615.03;10355400;28;20233;-83
2022/04/09 05:07:22;;;;;;;6.03;1.57;;;;;;;7.08;37.68;99629.16;10357921;28;20564;-82
2022/04/09 05:12:24;;;;;;;7.90;2.13;;;;;;;7.34;37.31;99637.38;10366496;28;20323;-81
2022/04/09 05:17:26;;;;;;;4.10;2.10;;;;;;;6.82;38.86;99649.00;10375225;28;20237;-84
2022/04/09 05:22:30;;;;;;;8.70;2.40;;;;;;;6.05;41.11;99657.75;10371602;28;20249;-83
2022/04/09 05:27:38;;;;;;;7.93;1.80;;;;;;;7.02;38.01;99654.97;10343359;28;20205;-82
2022/04/09 05:32:46;;;;;;;10.27;2.10;;;;;;;7.16;38.25;99658.34;10357410;28;20252;-83
2022/04/09 05:37:51;;;;;;;9.43;1.77;;;;;;;6.35;39.67;99661.41;10377827;28;20209;-84
2022/04/09 05:42:56;;;;;;;12.60;2.37;;;;;;;6.98;37.94;99665.28;10367382;28;20202;-82
2022/04/09 05:47:59;;;;;;;9.27;1.67;;;;;;;7.77;37.16;99679.19;10352996;28;20292;-82
2022/04/09 05:53:14;;;;;;;9.37;2.30;;;;;;;7.19;37.55;99681.00;10375164;28;20559;-81
2022/04/09 05:58:18;;;;;;;9.23;1.73;;;;;;;6.79;38.81;99693.78;10352118;28;20610;-82
2022/04/09 06:03:27;;;;;;;9.60;1.97;;;;;;;7.60;37.14;99701.84;10374153;28;20618;-81
2022/04/09 06:08:32;;;;;;;10.03;1.90;;;;;;;6.68;39.53;99712.16;10361815;28;20400;-82
2022/04/09 06:13:39;;;;;;;9.63;1.90;;;;;;;7.28;37.42;99727.88;10340785;28;20299;-81
2022/04/09 06:18:42;;;;;;;6.80;2.00;;;;;;;8.48;35.81;99726.81;10317007;28;20217;-81
2022/04/09 06:23:45;;;;;;;8.07;1.97;;;;;;;6.44;39.83;99746.47;10299293;28;20300;-82
2022/04/09 06:28:48;;;;;;;8.67;2.00;;;;;;;7.01;39.63;99746.91;10309955;28;20236;-82
2022/04/09 06:33:50;;;;;;;11.43;2.50;;;;;;;8.16;37.62;99750.19;10300378;28;20265;-82
2022/04/09 06:38:53;;;;;;;11.77;2.20;;;;;;;6.41;41.15;99767.59;10307713;28;20281;-82
2022/04/09 06:44:07;;;;;;;6.77;2.17;;;;;;;7.73;38.15;99782.38;10279469;28;20286;-84
2022/04/09 06:49:24;;;;;;;4.63;1.40;;;;;;;7.05;39.76;99781.59;10316486;28;20288;-81
2022/04/09 06:54:42;;;;;;;8.43;1.70;;;;;;;7.42;37.70;99782.72;10291419;28;20265;-83
2022/04/09 06:59:45;;;;;;;8.60;1.50;;;;;;;7.50;38.42;99790.25;10305559;28;20302;-81
2022/04/09 07:04:49;;;;;;;9.87;2.30;;;;;;;8.00;38.30;99794.25;10312761;28;20325;-82
2022/04/09 07:09:53;;;;;;;8.30;1.47;;;;;;;7.81;37.90;99809.59;10303086;28;20237;-83
2022/04/09 07:14:55;;;;;;;8.13;2.10;;;;;;;8.37;36.77;99817.75;10317063;28;20591;-82
2022/04/09 07:20:13;;;;;;;9.63;2.23;;;;;;;7.85;36.60;99823.81;10323219;28;20236;-83
2022/04/09 07:25:25;;;;;;;8.40;1.70;;;;;;;7.93;37.43;99834.19;10334529;28;20209;-83
2022/04/09 07:30:27;;;;;;;10.43;2.30;;;;;;;7.34;37.82;99839.00;10334005;28;20623;-83
2022/04/09 07:35:31;;;;;;;7.13;2.47;;;;;;;7.79;37.30;99826.00;10335531;28;20662;-81
2022/04/09 07:40:33;;;;;;;12.83;2.33;;;;;;;7.66;37.44;99845.94;10353971;28;20202;-82
2022/04/09 07:45:35;;;;;;;6.90;2.10;;;;;;;7.89;37.17;99862.19;10350385;28;20277;-83
2022/04/09 07:50:38;;;;;;;12.40;2.37;;;;;;;8.72;35.91;99861.31;10351832;28;20202;-82
2022/04/09 07:55:40;;;;;;;5.60;1.27;;;;;;;8.50;34.75;99854.06;10350378;28;20314;-82
2022/04/09 08:00:44;;;;;;;7.30;1.10;;;;;;;6.85;37.11;99873.06;10318700;28;20280;-82
2022/04/09 08:05:47;;;;;;;8.43;1.17;;;;;;;6.90;36.48;99874.88;10322177;28;20217;-81
2022/04/09 08:10:49;;;;;;;6.27;1.30;;;;;;;7.70;36.44;99881.50;10319101;28;20517;-81
2022/04/09 08:15:51;;;;;;;10.00;1.30;;;;;;;8.22;35.62;99893.25;10331480;28;20630;-81
2022/04/09 08:20:53;;;;;;;5.83;1.37;;;;;;;7.98;34.83;99892.28;10350771;28;20678;-82
2022/04/09 08:25:56;;;;;;;8.23;2.00;;;;;;;7.68;35.39;99916.75;10318509;28;20209;-83
2022/04/09 08:30:59;;;;;;;15.43;5.27;;;;;;;8.18;35.98;99920.44;10326601;28;20673;-77
2022/04/09 08:36:03;;;;;;;4.33;1.63;;;;;;;8.10;34.98;99907.25;10336886;28;20249;-83
2022/04/09 08:41:06;;;;;;;7.10;1.40;;;;;;;9.08;34.49;99902.06;10352223;28;20225;-82
2022/04/09 08:46:08;;;;;;;8.80;2.20;;;;;;;7.68;36.58;99909.13;10346415;28;20209;-82
2022/04/09 08:51:10;;;;;;;7.57;2.27;;;;;;;8.37;36.53;99921.97;10333851;28;20198;-83
2022/04/09 08:56:34;;;;;;;9.60;2.40;;;;;;;7.77;37.52;99917.56;10345456;28;20214;-83
2022/04/09 09:01:36;;;;;;;6.57;2.83;;;;;;;8.90;35.92;99924.00;10333972;28;20222;-83
2022/04/09 09:06:44;;;;;;;6.60;2.50;;;;;;;8.20;36.47;99929.38;10349695;28;20242;-81
2022/04/09 09:11:48;;;;;;;8.50;2.50;;;;;;;6.97;38.32;99937.03;10358850;28;20272;-82
2022/04/09 09:16:53;;;;;;;7.20;2.37;;;;;;;10.57;33.02;99910.63;10337140;28;20221;-82
2022/04/09 09:21:57;;;;;;;7.47;2.03;;;;;;;11.23;31.42;99907.22;10361001;28;20229;-83
2022/04/09 09:27:02;;;;;;;8.13;2.03;;;;;;;9.17;33.78;99926.19;10356319;28;20206;-84
2022/04/09 09:32:06;;;;;;;7.40;1.47;;;;;;;10.06;32.11;99929.22;10339373;28;20632;-83
2022/04/09 09:37:20;;;;;;;6.80;2.00;;;;;;;7.99;34.41;99928.53;10337553;28;20206;-83
2022/04/09 09:42:24;;;;;;;5.90;2.03;;;;;;;9.08;32.76;99914.16;10355261;28;20249;-83
2022/04/09 09:47:26;;;;;;;5.40;1.10;;;;;;;8.42;33.24;99919.75;10344721;28;20279;-84
2022/04/09 09:52:30;;;;;;;4.93;0.80;;;;;;;7.79;34.60;99930.13;10353811;28;20214;-83
2022/04/09 09:57:33;;;;;;;3.90;0.30;;;;;;;5.33;39.94;99973.22;10352832;28;20217;-84
2022/04/09 10:02:37;;;;;;;0.40;0.20;;;;;;;5.76;42.06;100003.47;10352931;28;20206;-83
2022/04/09 10:07:40;;;;;;;2.47;0.47;;;;;;;7.92;37.37;99978.88;10338507;28;20256;-83
2022/04/09 10:12:42;;;;;;;1.63;0.40;;;;;;;8.06;38.25;99987.09;10338798;28;20289;-83
2022/04/09 10:17:46;;;;;;;1.63;0.50;;;;;;;7.86;37.74;99986.72;10353226;28;20828;-83
2022/04/09 10:22:49;;;;;;;1.37;0.33;;;;;;;7.04;40.15;99987.94;10333053;28;20234;-83
2022/04/09 10:27:53;;;;;;;4.53;0.53;;;;;;;8.99;37.39;99972.66;10352785;28;20547;-82
2022/04/09 10:32:57;;;;;;;4.67;0.50;;;;;;;9.44;36.47;99972.69;10337000;28;20218;-83
2022/04/09 10:38:22;;;;;;;2.27;0.60;;;;;;;8.76;34.30;99968.56;10336675;28;20233;-82
2022/04/09 10:43:24;;;;;;;3.23;0.50;;;;;;;9.59;32.87;99972.00;10334101;28;20221;-83
2022/04/09 10:48:31;;;;;;;2.77;0.73;;;;;;;9.62;32.08;99967.66;10335458;28;20214;-83
2022/04/09 10:53:36;;;;;;;2.50;0.60;;;;;;;8.77;32.88;99975.84;10354783;28;20503;-83
2022/04/09 10:59:00;;;;;;;1.07;0.20;;;;;;;7.67;38.11;100062.22;10334053;28;20591;-82
2022/04/09 11:04:34;;;;;;;1.10;0.10;;;;;;;6.45;44.31;100026.94;10336529;28;20243;-83
2022/04/09 11:09:55;;;;;;;0.23;0.10;;;;;;;7.13;41.35;100025.28;10324784;28;20202;-83
2022/04/09 11:15:09;;;;;;;0.30;0.20;;;;;;;7.45;40.34;100020.28;10335601;28;20229;-83
2022/04/09 11:20:22;;;;;;;1.03;0.23;;;;;;;7.84;40.39;100020.00;10334902;28;20292;-83
2022/04/09 11:25:26;;;;;;;2.20;0.20;;;;;;;8.30;39.89;100015.44;10331355;28;20198;-82
2022/04/09 11:30:28;;;;;;;0.70;0.37;;;;;;;8.46;40.28;100030.59;10335943;28;20202;-82
2022/04/09 11:35:34;;;;;;;2.20;0.60;;;;;;;5.33;45.59;100092.91;10360100;28;20232;-81
2022/04/09 11:40:42;;;;;;;2.23;0.40;;;;;;;5.99;44.06;100113.63;10335004;28;20284;-82
2022/04/09 11:45:45;;;;;;;1.03;0.20;;;;;;;5.44;45.25;100127.94;10341341;28;20255;-82
2022/04/09 11:50:48;;;;;;;1.30;0.37;;;;;;;5.48;45.68;100117.75;10335334;28;20201;-81
2022/04/09 11:55:59;;;;;;;0.20;0.20;;;;;;;6.11;44.34;100127.88;10357450;28;20280;-82
2022/04/09 12:01:02;;;;;;;1.20;0.13;;;;;;;7.39;41.36;100106.78;10316276;28;20210;-81
2022/04/09 12:06:06;;;;;;;1.80;0.20;;;;;;;7.86;39.72;100099.31;10333130;28;20213;-81
2022/04/09 12:11:12;;;;;;;2.10;0.30;;;;;;;8.29;39.32;100095.47;10334315;28;20260;-82
2022/04/09 12:16:17;;;;;;;2.47;0.60;;;;;;;9.13;38.34;100091.63;10332315;28;20245;-81
2022/04/09 12:21:26;;;;;;;2.43;0.70;;;;;;;8.67;39.29;100084.97;10328325;28;20518;-81
2022/04/09 12:26:32;;;;;;;3.07;0.80;;;;;;;9.15;37.37;100072.38;10334592;28;20198;-82
2022/04/09 12:31:35;;;;;;;2.03;0.33;;;;;;;10.39;36.16;100065.47;10317441;28;20219;-82
2022/04/09 12:36:38;;;;;;;2.67;0.30;;;;;;;10.45;38.02;100051.94;10349151;28;20276;-81
2022/04/09 12:41:45;;;;;;;0.40;0.20;;;;;;;10.14;35.58;100060.19;10315395;28;20270;-82
2022/04/09 12:46:48;;;;;;;3.73;0.50;;;;;;;10.95;35.04;100042.22;10314688;28;20214;-81
2022/04/09 12:51:52;;;;;;;1.53;0.20;;;;;;;10.25;33.74;100055.69;10342360;28;20209;-82
2022/04/09 12:56:55;;;;;;;2.17;0.20;;;;;;;9.59;31.59;100053.03;10357802;28;20229;-81
2022/04/09 13:01:57;;;;;;;1.83;0.20;;;;;;;9.68;31.84;100056.59;10339110;28;20197;-81
2022/04/09 13:06:59;;;;;;;1.00;0.20;;;;;;;9.55;31.53;100057.72;10366433;28;20229;-81
2022/04/09 13:12:02;;;;;;;0.50;0.20;;;;;;;10.20;31.65;100061.59;10346724;28;20281;-81
2022/04/09 13:17:05;;;;;;;1.33;0.30;;;;;;;11.11;30.76;100045.94;10358884;28;20276;-82
2022/04/09 13:22:07;;;;;;;3.20;0.30;;;;;;;10.39;29.21;100059.00;10361064;28;20715;-82
2022/04/09 13:27:10;;;;;;;1.90;0.43;;;;;;;8.49;30.61;100077.81;10372609;28;20210;-82
2022/04/09 13:32:12;;;;;;;1.73;0.40;;;;;;;9.19;31.07;100087.41;10355793;28;20217;-82
2022/04/09 13:37:18;;;;;;;2.50;0.50;;;;;;;10.19;32.18;100093.84;10348013;28;20261;-81
2022/04/09 13:42:20;;;;;;;1.23;0.20;;;;;;;10.81;29.07;100072.88;10361249;28;20289;-82
2022/04/09 13:47:22;;;;;;;4.40;0.63;;;;;;;11.91;28.99;100079.75;10348774;28;20947;-82
2022/04/09 13:52:24;;;;;;;1.07;0.27;;;;;;;9.35;28.91;100091.25;10356027;28;20286;-82
2022/04/09 13:57:28;;;;;;;3.07;0.30;;;;;;;10.24;27.28;100088.78;10349936;28;20678;-82
2022/04/09 14:02:31;;;;;;;0.90;0.40;;;;;;;10.16;26.92;100088.91;10353386;28;20201;-81
2022/04/09 14:07:35;;;;;;;2.20;0.27;;;;;;;10.45;27.85;100102.81;10348298;28;20284;-82
2022/04/09 14:18:16;;;;;;;0.10;0.10;;;;;;;7.58;31.58;100117.69;11149412;23;20266;-82
2022/04/09 14:23:19;;;;;;;0.50;0.20;;;;;;;8.88;30.37;100124.50;10021401;29;20513;-83
2022/04/09 14:28:24;;;;;;;0.50;0.20;;;;;;;7.92;34.22;100162.69;10008593;29;20299;-81
2022/04/09 14:33:26;;;;;;;2.87;0.40;;;;;;;10.53;33.09;100163.25;10010597;29;20267;-81
2022/04/09 14:38:29;;;;;;;2.93;0.30;;;;;;;8.60;35.35;100152.31;9981757;29;20239;-81
2022/04/09 14:43:31;;;;;;;1.67;0.40;;;;;;;9.57;35.85;100154.16;9995557;29;20584;-81
2022/04/09 14:48:37;;;;;;;1.27;0.43;;;;;;;10.03;34.01;100142.56;10021104;29;20306;-81
2022/04/09 14:53:40;;;;;;;1.03;0.20;;;;;;;9.62;33.06;100146.31;10020874;29;20273;-81
2022/04/09 14:58:42;;;;;;;4.40;0.63;;;;;;;9.60;31.63;100147.81;10037469;29;20234;-81
2022/04/09 15:03:44;;;;;;;2.07;0.40;;;;;;;8.29;32.38;100151.78;10038493;29;20237;-81
2022/04/09 15:08:47;;;;;;;1.60;0.20;;;;;;;9.15;30.26;100151.34;10042225;29;20279;-81
2022/04/09 15:13:49;;;;;;;1.73;0.50;;;;;;;7.94;31.85;100166.00;10032882;29;20291;-80
2022/04/09 15:18:51;;;;;;;1.47;0.40;;;;;;;7.37;32.80;100179.41;10043799;29;20306;-80
2022/04/09 15:23:53;;;;;;;1.83;0.40;;;;;;;8.51;34.12;100188.16;10041894;29;20202;-80
2022/04/09 15:28:55;;;;;;;1.33;0.20;;;;;;;8.17;35.39;100205.16;10027662;29;20210;-82
2022/04/09 15:34:00;;;;;;;3.83;0.20;;;;;;;8.57;36.15;100216.97;10043495;29;20322;-84
2022/04/09 15:39:03;;;;;;;2.03;0.43;;;;;;;7.98;36.45;100224.44;10059076;29;20202;-81
2022/04/09 15:44:06;;;;;;;3.27;0.57;;;;;;;7.48;36.63;100210.88;10043253;29;20232;-82
2022/04/09 15:49:09;;;;;;;2.20;0.60;;;;;;;10.51;32.53;100206.00;10039622;29;20588;-81
2022/04/09 15:54:12;;;;;;;4.00;0.63;;;;;;;9.53;33.12;100212.44;10022736;29;20262;-83
2022/04/09 15:59:14;;;;;;;3.23;0.40;;;;;;;9.17;32.50;100210.22;10034575;29;20234;-82
2022/04/09 16:04:16;;;;;;;3.00;0.53;;;;;;;9.45;32.09;100227.41;10030188;29;20668;-82
2022/04/09 16:09:18;;;;;;;0.77;0.40;;;;;;;8.22;32.64;100219.09;10028098;29;20211;-83
2022/04/09 16:14:20;;;;;;;2.97;0.30;;;;;;;9.10;31.76;100222.03;10038101;29;20259;-83
2022/04/09 16:19:23;;;;;;;1.83;0.63;;;;;;;9.31;30.99;100228.50;10025655;29;20322;-82
2022/04/09 16:24:25;;;;;;;1.43;0.40;;;;;;;9.28;30.95;100234.88;10024944;29;20238;-83
2022/04/09 16:29:27;;;;;;;1.67;0.67;;;;;;;10.04;30.21;100226.13;10047649;29;20268;-81
2022/04/09 16:34:30;;;;;;;2.17;1.00;;;;;;;9.13;31.07;100220.53;10016658;29;20341;-82
2022/04/09 16:39:33;;;;;;;1.23;0.50;;;;;;;9.93;30.63;100222.06;10050871;29;20302;-83
2022/04/09 16:44:35;;;;;;;3.10;0.70;;;;;;;8.33;32.32;100236.44;10027130;29;20210;-82
2022/04/09 16:49:39;;;;;;;1.87;0.30;;;;;;;8.05;32.08;100242.47;10040879;29;20238;-83
2022/04/09 16:54:43;;;;;;;2.73;0.30;;;;;;;9.19;31.48;100230.44;10039844;29;20226;-81
2022/04/09 16:59:45;;;;;;;1.87;0.60;;;;;;;9.13;30.62;100231.81;10021933;29;20232;-81
2022/04/09 17:04:47;;;;;;;2.37;0.50;;;;;;;9.46;29.98;100223.44;10027991;29;20222;-80
2022/04/09 17:09:50;;;;;;;5.93;0.60;;;;;;;10.16;29.07;100241.44;10018447;29;20269;-81
2022/04/09 17:14:52;;;;;;;3.00;0.43;;;;;;;9.30;31.01;100243.00;10028786;29;20250;-83
2022/04/09 17:19:54;;;;;;;2.47;0.63;;;;;;;8.63;31.99;100239.00;10050580;29;20314;-81
2022/04/09 17:24:57;;;;;;;3.07;0.53;;;;;;;8.60;32.21;100261.38;10042038;29;20258;-82
2022/04/09 17:29:59;;;;;;;2.07;0.40;;;;;;;8.48;32.16;100264.91;10024889;29;20280;-81
2022/04/09 17:35:03;;;;;;;1.70;0.30;;;;;;;6.14;35.45;100279.63;10006911;29;20271;-82
2022/04/09 17:40:06;;;;;;;1.73;0.23;;;;;;;7.52;32.55;100273.75;10009123;29;20246;-81
2022/04/09 17:45:08;;;;;;;0.93;0.30;;;;;;;7.80;31.64;100274.28;10021510;29;20230;-81
2022/04/09 17:50:11;;;;;;;1.80;0.90;;;;;;;8.14;31.33;100267.81;10027661;29;20922;-81
2022/04/09 17:55:13;;;;;;;0.87;0.20;;;;;;;8.43;30.39;100281.16;10011256;29;20259;-81
2022/04/09 18:00:16;;;;;;;1.80;0.50;;;;;;;8.79;29.82;100278.78;10018572;29;20231;-81
2022/04/09 18:05:21;;;;;;;0.70;0.30;;;;;;;8.15;30.69;100284.34;10019925;29;20234;-81
2022/04/09 18:10:23;;;;;;;3.33;0.40;;;;;;;8.27;30.73;100278.91;9998301;29;20268;-82
2022/04/09 18:15:25;;;;;;;1.63;0.33;;;;;;;8.56;30.04;100286.59;10017920;29;20274;-82
2022/04/09 18:20:28;;;;;;;3.70;0.67;;;;;;;8.83;30.30;100288.19;10003258;29;20269;-82
2022/04/09 18:25:31;;;;;;;3.03;0.40;;;;;;;7.47;32.34;100300.06;10008587;29;20965;-81
2022/04/09 18:30:34;;;;;;;2.63;1.17;;;;;;;7.13;32.50;100312.03;9988356;29;20310;-80
2022/04/09 18:35:39;;;;;;;2.10;1.23;;;;;;;8.81;30.31;100306.59;10012582;29;20266;-81
2022/04/09 18:40:42;;;;;;;2.07;0.80;;;;;;;8.55;30.32;100312.28;10004952;29;20264;-81
2022/04/09 18:45:45;;;;;;;4.87;1.13;;;;;;;8.78;30.31;100307.28;10018178;29;20636;-82
2022/04/09 18:50:47;;;;;;;2.23;0.63;;;;;;;9.73;29.56;100311.25;10033907;29;20287;-81
2022/04/09 18:55:50;;;;;;;2.27;1.20;;;;;;;9.54;29.69;100321.34;10031728;29;20311;-82
2022/04/09 19:00:53;;;;;;;2.00;0.70;;;;;;;9.06;29.84;100333.84;10038850;29;20294;-82
2022/04/09 19:05:55;;;;;;;4.97;1.47;;;;;;;10.24;29.02;100339.41;9996793;29;20604;-82
2022/04/09 19:10:58;;;;;;;2.20;0.70;;;;;;;9.02;30.16;100352.63;10005475;29;20317;-82
2022/04/09 19:16:01;;;;;;;3.57;0.47;;;;;;;9.60;28.92;100359.50;9988649;29;20349;-81
2022/04/09 19:21:06;;;;;;;4.07;0.90;;;;;;;8.24;30.95;100361.22;10018963;29;20301;-82
2022/04/09 19:26:11;;;;;;;3.13;0.53;;;;;;;7.97;31.43;100386.06;10049361;29;20285;-82
2022/04/09 19:31:17;;;;;;;2.17;0.70;;;;;;;8.28;30.15;100376.28;10039247;29;20515;-82
2022/04/09 19:36:19;;;;;;;2.10;0.70;;;;;;;9.08;29.98;100376.66;10054601;29;20736;-81
2022/04/09 19:41:22;;;;;;;3.87;0.70;;;;;;;9.12;29.59;100377.63;10047806;29;20286;-81
2022/04/09 19:46:24;;;;;;;2.67;0.70;;;;;;;7.47;32.79;100392.06;10039133;29;20211;-81
2022/04/09 19:51:27;;;;;;;3.40;1.10;;;;;;;8.26;31.79;100383.44;10010411;29;20693;-82
2022/04/09 19:56:31;;;;;;;2.97;0.60;;;;;;;7.05;32.40;100400.00;10005604;29;20321;-82
2022/04/09 20:01:34;;;;;;;4.43;0.87;;;;;;;7.49;32.34;100415.06;10081445;29;20261;-81
2022/04/09 20:06:37;;;;;;;7.70;1.20;;;;;;;8.02;31.93;100411.22;10051389;29;20549;-82
2022/04/09 20:11:39;;;;;;;4.20;0.97;;;;;;;7.55;32.88;100431.47;10044750;29;20214;-82
2022/04/09 20:16:41;;;;;;;3.07;1.00;;;;;;;7.69;32.39;100422.06;10037539;29;20306;-83
2022/04/09 20:21:47;;;;;;;2.33;0.77;;;;;;;7.39;33.57;100427.41;10033325;29;20206;-81
2022/04/09 20:26:50;;;;;;;3.83;1.30;;;;;;;7.61;33.04;100434.97;10042544;29;20239;-81
2022/04/09 20:31:54;;;;;;;2.00;0.63;;;;;;;8.14;32.67;100437.59;10043492;29;20546;-81
2022/04/09 20:36:57;;;;;;;4.00;1.10;;;;;;;7.21;33.37;100453.81;10052473;29;20283;-82
2022/04/09 20:41:59;;;;;;;3.37;1.13;;;;;;;7.34;33.24;100466.97;10051221;29;20206;-82
2022/04/09 20:47:02;;;;;;;3.70;1.27;;;;;;;7.86;32.59;100451.13;10027882;29;20203;-81
2022/04/09 20:52:04;;;;;;;3.17;1.20;;;;;;;7.38;33.65;100459.50;10045400;29;20561;-82
2022/04/09 20:57:07;;;;;;;6.67;1.20;;;;;;;7.88;32.60;100464.88;10043298;29;20306;-81
2022/04/09 21:02:09;;;;;;;3.87;1.37;;;;;;;8.27;32.09;100475.22;10057638;29;20275;-82
2022/04/09 21:07:11;;;;;;;5.13;1.30;;;;;;;7.41;33.88;100480.53;10065505;29;20206;-82
2022/04/09 21:12:14;;;;;;;3.57;1.20;;;;;;;7.08;34.69;100477.22;10051222;29;20545;-82
2022/04/09 21:17:16;;;;;;;4.33;1.50;;;;;;;7.67;33.91;100489.94;10046387;29;20316;-82
2022/04/09 21:22:18;;;;;;;3.40;1.50;;;;;;;7.43;34.10;100495.94;10034572;29;20286;-81
2022/04/09 21:27:21;;;;;;;2.63;1.23;;;;;;;7.62;34.42;100501.34;10049268;29;20600;-82
2022/04/09 21:32:23;;;;;;;3.93;1.97;;;;;;;7.56;34.05;100499.81;10063881;29;20295;-82
2022/04/09 21:37:25;;;;;;;4.13;1.63;;;;;;;7.74;34.35;100507.22;10033384;29;20325;-82
2022/04/09 21:42:27;;;;;;;3.93;1.67;;;;;;;7.39;34.95;100517.44;10065448;29;20203;-81
2022/04/09 21:47:31;;;;;;;4.80;2.03;;;;;;;8.38;33.72;100510.34;10053126;29;20202;-84
2022/04/09 21:52:33;;;;;;;5.57;1.73;;;;;;;8.32;33.33;100508.84;10041439;29;20218;-82
2022/04/09 21:57:36;;;;;;;4.63;1.93;;;;;;;7.87;34.77;100525.97;10037542;29;20258;-82
2022/04/09 22:02:38;;;;;;;4.90;1.87;;;;;;;8.02;34.63;100523.84;10046430;29;20219;-82
2022/04/09 22:07:40;;;;;;;4.80;2.10;;;;;;;7.89;34.53;100532.09;10066206;29;20215;-82
2022/04/09 22:12:42;;;;;;;5.47;2.03;;;;;;;7.56;34.84;100542.00;10050115;29;20247;-82
2022/04/09 22:18:07;;;;;;;5.73;2.50;;;;;;;7.72;34.78;100536.81;10065805;29;20234;-82
2022/04/09 22:23:09;;;;;;;6.10;2.57;;;;;;;7.93;34.29;100550.00;10048948;29;20644;-82
2022/04/09 22:28:12;;;;;;;6.67;2.20;;;;;;;7.64;35.16;100555.28;10034066;29;20211;-82
2022/04/09 22:33:14;;;;;;;5.03;2.50;;;;;;;7.61;35.20;100558.78;10039954;29;20211;-81
2022/04/09 22:38:16;;;;;;;4.33;2.00;;;;;;;7.68;35.51;100561.94;10065139;29;20523;-82
2022/04/09 22:43:19;;;;;;;2.60;1.80;;;;;;;7.95;34.47;100560.94;10048694;29;20206;-82
2022/04/09 22:48:21;;;;;;;3.97;2.30;;;;;;;8.27;33.97;100571.81;10042644;29;20231;-81
2022/04/09 22:53:23;;;;;;;3.70;1.87;;;;;;;7.68;34.97;100573.19;10048410;29;20274;-82
2022/04/09 22:58:25;;;;;;;3.80;2.27;;;;;;;7.79;34.67;100577.41;10048201;29;20231;-82
2022/04/09 23:03:27;;;;;;;6.30;2.17;;;;;;;8.09;33.97;100574.91;10049074;29;20266;-81
2022/04/09 23:08:30;;;;;;;5.37;2.30;;;;;;;7.48;34.92;100583.03;10064413;29;20314;-82
2022/04/09 23:13:32;;;;;;;6.43;2.70;;;;;;;7.40;35.16;100588.56;10062856;29;20210;-82
2022/04/09 23:18:34;;;;;;;6.67;3.07;;;;;;;7.28;35.13;100591.13;10046762;29;20230;-81
2022/04/09 23:23:37;;;;;;;2.50;2.10;;;;;;;7.11;35.65;100601.09;10063727;29;20474;-81
2022/04/09 23:28:39;;;;;;;4.97;3.03;;;;;;;7.42;35.30;100589.91;10054381;29;20199;-81
2022/04/09 23:33:41;;;;;;;6.77;2.93;;;;;;;7.18;35.28;100604.31;10047078;29;20229;-81
2022/04/09 23:38:43;;;;;;;6.27;2.77;;;;;;;6.93;36.01;100599.31;10062336;29;20282;-82
2022/04/09 23:43:46;;;;;;;7.03;2.77;;;;;;;7.87;34.30;100592.69;10063020;29;20210;-82